createdAt,value
2018-10-11T00:01:52.367Z,98094.99
2018-10-11T00:04:22.600Z,98093.80
2018-10-11T00:06:52.781Z,98090.53
2018-10-11T00:09:23.047Z,98103.69
2018-10-11T00:11:53.199Z,98108.75
2018-10-11T00:14:23.467Z,98106.53
2018-10-11T00:16:53.683Z,98103.03
2018-10-11T00:19:23.921Z,98090.09
2018-10-11T00:21:54.100Z,98085.83
2018-10-11T00:24:24.373Z,98085.38
2018-10-11T00:26:54.597Z,98081.90
2018-10-11T00:29:25.156Z,98082.38
2018-10-11T00:31:55.415Z,98091.48
2018-10-11T00:34:25.756Z,98090.28
2018-10-11T00:36:55.995Z,98094.26
2018-10-11T00:39:26.228Z,98097.26
2018-10-11T00:41:56.408Z,98099.23
2018-10-11T00:44:26.958Z,98092.93
2018-10-11T00:46:57.391Z,98094.11
2018-10-11T00:49:27.713Z,98091.50
2018-10-11T00:51:57.995Z,98087.86
2018-10-11T00:54:28.439Z,98089.76
2018-10-11T00:56:58.711Z,98086.89
2018-10-11T00:59:28.957Z,98078.24
2018-10-11T01:01:59.115Z,98080.80
2018-10-11T01:04:29.797Z,98083.17
2018-10-11T01:07:00.162Z,98081.55
2018-10-11T01:09:30.471Z,98083.88
2018-10-11T01:12:00.667Z,98077.03
2018-10-11T01:14:30.878Z,98073.09
2018-10-11T01:17:01.077Z,98069.73
2018-10-11T01:19:31.241Z,98071.21
2018-10-11T01:22:01.400Z,98071.21
2018-10-11T01:24:31.699Z,98074.30
2018-10-11T01:27:01.911Z,98064.82
2018-10-11T01:29:32.107Z,98057.55
2018-10-11T01:32:02.708Z,98062.22
2018-10-11T01:34:32.923Z,98060.28
2018-10-11T01:37:03.080Z,98054.53
2018-10-11T01:39:33.349Z,98047.86
2018-10-11T01:42:03.569Z,98053.19
2018-10-11T01:44:33.891Z,98043.56
2018-10-11T01:47:04.469Z,98041.21
2018-10-11T01:49:34.635Z,98042.28
2018-10-11T01:52:04.878Z,98033.45
2018-10-11T01:54:35.163Z,98033.85
2018-10-11T01:57:05.416Z,98028.70
2018-10-11T01:59:35.601Z,98019.97
2018-10-11T02:02:05.952Z,98024.02
2018-10-11T02:04:36.150Z,98032.66
2018-10-11T02:07:06.359Z,98034.53
2018-10-11T02:09:36.624Z,98028.38
2018-10-11T02:12:07.130Z,98032.20
2018-10-11T02:14:37.305Z,98035.92
2018-10-11T02:17:07.469Z,98050.08
2018-10-11T02:19:37.684Z,98051.20
2018-10-11T02:22:08.048Z,98045.38
2018-10-11T02:24:38.472Z,98054.83
2018-10-11T02:27:08.746Z,98041.48
2018-10-11T02:29:39.359Z,98045.25
2018-10-11T02:32:09.567Z,98042.48
2018-10-11T02:34:39.955Z,98041.89
2018-10-11T02:37:10.558Z,98044.30
2018-10-11T02:39:40.769Z,98047.00
2018-10-11T02:42:11.002Z,98047.27
2018-10-11T02:44:41.498Z,98050.08
2018-10-11T02:47:11.938Z,98044.70
2018-10-11T02:49:42.760Z,98037.77
2018-10-11T02:52:13.189Z,98036.30
2018-10-11T02:54:43.466Z,98028.15
2018-10-11T02:57:24.710Z,98025.21
2018-10-11T02:59:55.025Z,98021.59
2018-10-11T03:02:25.847Z,98022.91
2018-10-11T03:04:56.197Z,98030.73
2018-10-11T03:07:28.148Z,98035.27
2018-10-11T03:09:58.752Z,98031.80
2018-10-11T03:12:28.947Z,98038.98
2018-10-11T03:14:59.101Z,98043.66
2018-10-11T03:17:29.292Z,98044.97
2018-10-11T03:19:59.549Z,98041.61
2018-10-11T03:22:29.748Z,98041.88
2018-10-11T03:24:59.965Z,98040.47
2018-10-11T03:27:30.155Z,98036.03
2018-10-11T03:30:00.333Z,98030.35
2018-10-11T03:32:30.581Z,98031.20
2018-10-11T03:35:01.025Z,98027.76
2018-10-11T03:37:31.309Z,98028.59
2018-10-11T03:40:01.524Z,98027.70
2018-10-11T03:42:31.657Z,98026.33
2018-10-11T03:45:01.912Z,98026.98
2018-10-11T03:47:32.108Z,98026.86
2018-10-11T03:50:02.341Z,98027.66
2018-10-11T03:52:32.582Z,98024.34
2018-10-11T03:55:02.785Z,98018.67
2018-10-11T03:57:32.910Z,98021.02
2018-10-11T04:00:03.145Z,98008.41
2018-10-11T04:02:33.367Z,98016.55
2018-10-11T04:05:03.664Z,98023.37
2018-10-11T04:07:34.073Z,98030.09
2018-10-11T04:10:04.250Z,98022.44
2018-10-11T04:12:34.430Z,98022.36
2018-10-11T04:15:04.758Z,98026.56
2018-10-11T04:17:34.964Z,98027.25
2018-10-11T04:20:05.194Z,98037.25
2018-10-11T04:22:35.354Z,98039.55
2018-10-11T04:25:05.816Z,98028.66
2018-10-11T04:27:36.224Z,98035.47
2018-10-11T04:30:06.594Z,98028.88
2018-10-11T04:32:36.734Z,98028.59
2018-10-11T04:35:06.940Z,98025.40
2018-10-11T04:37:37.157Z,98033.86
2018-10-11T04:40:07.442Z,98040.55
2018-10-11T04:42:37.645Z,98042.50
2018-10-11T04:45:07.893Z,98051.94
2018-10-11T04:47:38.055Z,98051.16
2018-10-11T04:50:08.307Z,98042.76
2018-10-11T04:52:38.513Z,98044.73
2018-10-11T04:55:08.756Z,98043.26
2018-10-11T04:57:39.103Z,98044.34
2018-10-11T05:00:09.613Z,98041.08
2018-10-11T05:02:39.873Z,98038.42
2018-10-11T05:05:10.269Z,98041.27
2018-10-11T05:07:40.526Z,98049.28
2018-10-11T05:10:10.923Z,98050.50
2018-10-11T05:12:41.242Z,98050.17
2018-10-11T05:15:11.613Z,98045.81
2018-10-11T05:17:42.862Z,98048.05
2018-10-11T05:20:13.181Z,98056.44
2018-10-11T05:22:43.497Z,98058.82
2018-10-11T05:25:14.054Z,98058.25
2018-10-11T05:27:44.334Z,98055.45
2018-10-11T05:30:14.510Z,98060.86
2018-10-11T05:32:45.226Z,98067.05
2018-10-11T05:35:15.566Z,98063.90
2018-10-11T05:37:45.720Z,98064.67
2018-10-11T05:40:16.227Z,98072.23
2018-10-11T05:42:46.532Z,98062.47
2018-10-11T05:45:20.832Z,98067.46
2018-10-11T05:47:51.424Z,98064.75
2018-10-11T05:50:21.736Z,98069.42
2018-10-11T05:52:51.996Z,98074.80
2018-10-11T05:55:22.271Z,98073.75
2018-10-11T05:57:52.727Z,98074.09
2018-10-11T06:00:23.142Z,98072.73
2018-10-11T06:03:08.260Z,98073.05
2018-10-11T06:05:38.536Z,98070.77
2018-10-11T06:08:08.874Z,98068.30
2018-10-11T06:10:41.586Z,98071.84
2018-10-11T06:13:12.386Z,98064.50
2018-10-11T06:15:42.982Z,98063.80
2018-10-11T06:18:13.604Z,98072.88
2018-10-11T06:20:44.053Z,98072.15
2018-10-11T06:23:14.235Z,98080.63
2018-10-11T06:25:44.706Z,98068.34
2018-10-11T06:28:15.009Z,98072.63
2018-10-11T06:30:45.386Z,98074.40
2018-10-11T06:33:18.652Z,98079.63
2018-10-11T06:35:49.012Z,98076.20
2018-10-11T06:38:19.604Z,98075.18
2018-10-11T06:40:50.110Z,98064.39
2018-10-11T06:43:20.557Z,98059.45
2018-10-11T06:45:50.926Z,98054.50
2018-10-11T06:48:21.282Z,98057.92
2018-10-11T06:50:51.644Z,98053.23
2018-10-11T06:53:21.876Z,98061.02
2018-10-11T06:55:52.289Z,98060.19
2018-10-11T06:58:23.189Z,98061.95
2018-10-11T07:00:53.514Z,98063.17
2018-10-11T07:03:24.130Z,98057.47
2018-10-11T07:05:54.349Z,98052.97
2018-10-11T07:08:25.522Z,98036.16
2018-10-11T07:10:55.704Z,98043.21
2018-10-11T07:13:26.902Z,98048.41
2018-10-11T07:15:57.170Z,98049.39
2018-10-11T07:18:27.418Z,98049.05
2018-10-11T07:20:57.736Z,98050.27
2018-10-11T07:23:27.954Z,98055.45
2018-10-11T07:25:58.378Z,98056.22
2018-10-11T07:28:28.554Z,98062.71
2018-10-11T07:30:58.930Z,98064.36
2018-10-11T07:33:29.144Z,98065.61
2018-10-11T07:35:59.427Z,98069.33
2018-10-11T07:38:29.646Z,98069.55
2018-10-11T07:40:59.921Z,98066.90
2018-10-11T07:43:30.130Z,98064.58
2018-10-11T07:46:00.396Z,98063.38
2018-10-11T07:48:30.632Z,98057.56
2018-10-11T07:51:00.899Z,98056.94
2018-10-11T07:53:31.106Z,98052.96
2018-10-11T07:56:01.370Z,98051.47
2018-10-11T07:58:31.564Z,98056.49
2018-10-11T08:01:01.870Z,98045.88
2018-10-11T08:03:32.166Z,98054.11
2018-10-11T08:06:02.437Z,98057.00
2018-10-11T08:08:32.832Z,98041.25
2018-10-11T08:11:03.233Z,98044.86
2018-10-11T08:13:33.379Z,98049.37
2018-10-11T08:16:03.732Z,98045.31
2018-10-11T08:18:34.077Z,98048.97
2018-10-11T08:21:04.344Z,98049.47
2018-10-11T08:23:34.610Z,98054.50
2018-10-11T08:26:05.344Z,98050.75
2018-10-11T08:28:35.254Z,98047.45
2018-10-11T08:31:05.646Z,98046.14
2018-10-11T08:33:35.862Z,98048.85
2018-10-11T08:36:06.118Z,98051.83
2018-10-11T08:38:36.417Z,98054.06
2018-10-11T08:41:06.844Z,98048.69
2018-10-11T08:43:37.115Z,98053.09
2018-10-11T08:46:07.380Z,98056.09
2018-10-11T08:48:37.611Z,98053.31
2018-10-11T08:51:08.051Z,98054.98
2018-10-11T08:53:38.217Z,98057.02
2018-10-11T08:56:08.657Z,98050.59
2018-10-11T08:58:38.796Z,98047.25
2018-10-11T09:01:08.997Z,98043.93
2018-10-11T09:03:39.268Z,98031.84
2018-10-11T09:06:09.462Z,98035.34
2018-10-11T09:08:39.666Z,98041.55
2018-10-11T09:11:09.920Z,98034.33
2018-10-11T09:13:40.144Z,98039.88
2018-10-11T09:16:10.682Z,98034.99
2018-10-11T09:18:41.044Z,98040.67
2018-10-11T09:21:11.340Z,98035.34
2018-10-11T09:23:41.526Z,98033.28
2018-10-11T09:26:11.719Z,98037.61
2018-10-11T09:28:41.868Z,98037.97
2018-10-11T09:31:12.039Z,98039.36
2018-10-11T09:33:42.190Z,98032.56
2018-10-11T09:36:12.468Z,98036.67
2018-10-11T09:38:42.782Z,98035.63
2018-10-11T09:41:13.053Z,98028.33
2018-10-11T09:43:44.008Z,98034.00
2018-10-11T09:46:14.198Z,98033.23
2018-10-11T09:48:44.547Z,98033.70
2018-10-11T09:51:14.878Z,98034.98
2018-10-11T09:53:45.114Z,98040.83
2018-10-11T09:56:15.413Z,98038.30
2018-10-11T09:58:45.714Z,98040.41
2018-10-11T10:01:21.157Z,98041.78
2018-10-11T10:03:51.610Z,98042.92
2018-10-11T10:06:22.114Z,98039.67
2018-10-11T10:08:52.401Z,98040.56
2018-10-11T10:11:22.723Z,98030.23
2018-10-11T10:13:52.995Z,98037.08
2018-10-11T10:16:23.381Z,98037.76
2018-10-11T10:18:53.617Z,98021.05
2018-10-11T10:21:24.107Z,98018.87
2018-10-11T10:23:54.315Z,98029.41
2018-10-11T10:26:24.684Z,98025.38
2018-10-11T10:28:55.017Z,98014.64
2018-10-11T10:31:25.395Z,98010.33
2018-10-11T10:33:55.715Z,98012.78
2018-10-11T10:36:26.129Z,98015.30
2018-10-11T10:38:56.377Z,98011.95
2018-10-11T10:41:26.683Z,98006.57
2018-10-11T10:43:56.870Z,98005.88
2018-10-11T10:46:27.179Z,98004.78
2018-10-11T10:48:57.727Z,98003.59
2018-10-11T10:51:27.941Z,98005.09
2018-10-11T10:53:58.223Z,98004.56
2018-10-11T10:56:28.668Z,98004.18
2018-10-11T10:58:59.001Z,97993.46
2018-10-11T11:01:29.527Z,98007.50
2018-10-11T11:03:59.766Z,97998.00
2018-10-11T11:06:30.153Z,97990.99
2018-10-11T11:09:00.379Z,97998.63
2018-10-11T11:11:30.664Z,98006.96
2018-10-11T11:14:00.951Z,97998.43
2018-10-11T11:16:31.296Z,98000.64
2018-10-11T11:19:01.571Z,97995.50
2018-10-11T11:21:31.929Z,97997.19
2018-10-11T11:24:02.223Z,97994.22
2018-10-11T11:26:32.603Z,97991.60
2018-10-11T11:29:02.951Z,97985.31
2018-10-11T11:31:33.569Z,97989.20
2018-10-11T11:34:04.251Z,97986.48
2018-10-11T11:36:34.596Z,97996.63
2018-10-11T11:39:06.840Z,97990.88
2018-10-11T11:41:37.142Z,97996.90
2018-10-11T11:44:07.582Z,97988.91
2018-10-11T11:46:37.920Z,97994.17
2018-10-11T11:49:08.234Z,97989.08
2018-10-11T11:51:38.554Z,97986.42
2018-10-11T11:54:13.981Z,97987.80
2018-10-11T11:56:44.405Z,97984.59
2018-10-11T11:59:14.695Z,97990.74
2018-10-11T12:01:45.383Z,97993.00
2018-10-11T12:04:15.623Z,97981.59
2018-10-11T12:06:46.033Z,97990.18
2018-10-11T12:09:16.410Z,97974.84
2018-10-11T12:11:46.796Z,97980.88
2018-10-11T12:14:17.028Z,97978.20
2018-10-11T12:16:48.683Z,97979.68
2018-10-11T12:19:19.183Z,97976.44
2018-10-11T12:21:49.936Z,97979.53
2018-10-11T12:24:20.224Z,97978.50
2018-10-11T12:26:50.602Z,97984.20
2018-10-11T12:29:20.884Z,97979.20
2018-10-11T12:31:51.233Z,97980.98
2018-10-11T12:34:21.509Z,97976.30
2018-10-11T12:36:51.874Z,97978.55
2018-10-11T12:39:22.210Z,97973.30
2018-10-11T12:41:52.448Z,97976.39
2018-10-11T12:44:22.770Z,97977.25
2018-10-11T12:46:53.128Z,97987.58
2018-10-11T12:49:23.508Z,97980.02
2018-10-11T12:51:53.754Z,97983.35
2018-10-11T12:54:24.143Z,97981.20
2018-10-11T12:56:54.674Z,97983.80
2018-10-11T12:59:24.923Z,97972.30
2018-10-11T13:01:55.653Z,97971.75
2018-10-11T13:04:29.593Z,97976.06
2018-10-11T13:07:00.559Z,97973.29
2018-10-11T13:09:35.086Z,97970.41
2018-10-11T13:12:05.446Z,97974.15
2018-10-11T13:14:35.736Z,97972.59
2018-10-11T13:17:06.250Z,97976.67
2018-10-11T13:19:36.514Z,97971.50
2018-10-11T13:22:06.820Z,97970.61
2018-10-11T13:24:40.591Z,97960.73
2018-10-11T13:27:08.100Z,97963.24
2018-10-11T13:29:38.384Z,97960.69
2018-10-11T13:32:11.683Z,97966.71
2018-10-11T13:34:42.134Z,97964.16
2018-10-11T13:37:12.496Z,97959.30
2018-10-11T13:39:48.577Z,97951.20
2018-10-11T13:42:12.975Z,97956.63
2018-10-11T13:44:43.297Z,97958.08
2018-10-11T13:47:13.685Z,97961.31
2018-10-11T13:49:44.045Z,97958.70
2018-10-11T13:52:16.250Z,97960.20
2018-10-11T13:54:44.775Z,97955.47
2018-10-11T13:57:15.328Z,97958.44
2018-10-11T13:59:45.627Z,97959.59
2018-10-11T14:02:16.409Z,97956.09
2018-10-11T14:04:46.820Z,97949.74
2018-10-11T14:07:17.047Z,97954.17
2018-10-11T14:09:47.290Z,97956.77
2018-10-11T14:12:17.577Z,97954.05
2018-10-11T14:14:47.809Z,97956.32
2018-10-11T14:17:18.463Z,97958.90
2018-10-11T14:19:48.849Z,97955.06
2018-10-11T14:22:19.120Z,97952.63
2018-10-11T14:24:49.410Z,97953.58
2018-10-11T14:27:19.756Z,97943.72
2018-10-11T14:29:50.201Z,97949.93
2018-10-11T14:32:20.673Z,97946.67
2018-10-11T14:34:51.001Z,97950.23
2018-10-11T14:37:22.128Z,97943.39
2018-10-11T14:39:52.440Z,97942.04
2018-10-11T14:42:22.713Z,97943.73
2018-10-11T14:44:52.985Z,97941.13
2018-10-11T14:47:23.326Z,97942.20
2018-10-11T14:49:53.587Z,97941.98
2018-10-11T14:52:23.918Z,97939.27
2018-10-11T14:54:54.156Z,97944.36
2018-10-11T14:57:25.127Z,97942.36
2018-10-11T14:59:55.325Z,97944.78
2018-10-11T15:02:25.638Z,97945.30
2018-10-11T15:04:55.948Z,97948.32
2018-10-11T15:07:26.296Z,97952.69
2018-10-11T15:09:56.531Z,97952.41
2018-10-11T15:12:26.952Z,97962.98
2018-10-11T15:14:57.342Z,97958.98
2018-10-11T15:17:27.736Z,97963.59
2018-10-11T15:19:58.066Z,97970.80
2018-10-11T15:22:28.524Z,97972.73
2018-10-11T15:25:00.258Z,97971.87
2018-10-11T15:27:30.650Z,97973.27
2018-10-11T15:30:00.841Z,97982.59
2018-10-11T15:32:31.331Z,97978.91
2018-10-11T15:35:01.733Z,97986.55
2018-10-11T15:37:31.952Z,97982.05
2018-10-11T15:40:05.316Z,97976.41
2018-10-11T15:42:35.852Z,97985.25
2018-10-11T15:45:07.550Z,97975.31
2018-10-11T15:47:37.770Z,97976.94
2018-10-11T15:50:08.155Z,97982.00
2018-10-11T15:52:38.434Z,97983.58
2018-10-11T15:55:08.566Z,97979.77
2018-10-11T15:57:38.754Z,97980.34
2018-10-11T16:00:08.950Z,97985.09
2018-10-11T16:02:39.208Z,97986.17
2018-10-11T16:05:09.714Z,97991.56
2018-10-11T16:07:39.958Z,97992.55
2018-10-11T16:10:10.228Z,97996.94
2018-10-11T16:12:40.564Z,98001.83
2018-10-11T16:15:10.823Z,98005.55
2018-10-11T16:17:41.257Z,98007.81
2018-10-11T16:20:14.304Z,98006.77
2018-10-11T16:22:44.607Z,98016.84
2018-10-11T16:25:14.775Z,98009.13
2018-10-11T16:27:45.038Z,98025.50
2018-10-11T16:30:15.371Z,98021.36
2018-10-11T16:32:45.695Z,98017.42
2018-10-11T16:35:15.869Z,98029.44
2018-10-11T16:37:46.269Z,98029.61
2018-10-11T16:40:16.555Z,98030.11
2018-10-11T16:42:46.917Z,98026.95
2018-10-11T16:45:17.088Z,98032.28
2018-10-11T16:47:47.405Z,98033.31
2018-10-11T16:50:17.641Z,98037.81
2018-10-11T16:52:47.911Z,98041.33
2018-10-11T16:55:18.042Z,98041.37
2018-10-11T16:57:48.328Z,98044.97
2018-10-11T17:00:18.617Z,98048.45
2018-10-11T17:02:49.001Z,98054.20
2018-10-11T17:05:19.304Z,98053.34
2018-10-11T17:07:49.737Z,98059.13
2018-10-11T17:10:20.072Z,98052.60
2018-10-11T17:12:50.391Z,98058.73
2018-10-11T17:15:20.653Z,98060.27
2018-10-11T17:17:52.065Z,98057.63
2018-10-11T17:20:22.505Z,98058.69
2018-10-11T17:22:52.757Z,98062.97
2018-10-11T17:25:22.948Z,98067.73
2018-10-11T17:27:53.118Z,98072.02
2018-10-11T17:30:23.776Z,98085.38
2018-10-11T17:32:54.097Z,98074.69
2018-10-11T17:35:24.324Z,98077.73
2018-10-11T17:37:59.832Z,98079.17
2018-10-11T17:40:30.322Z,98080.03
2018-10-11T17:43:00.818Z,98080.88
2018-10-11T17:45:31.120Z,98075.17
2018-10-11T17:48:01.321Z,98077.03
2018-10-11T17:50:31.819Z,98076.02
2018-10-11T17:53:02.409Z,98077.66
2018-10-11T17:55:34.349Z,98074.14
2018-10-11T17:58:04.663Z,98076.33
2018-10-11T18:00:35.104Z,98075.45
2018-10-11T18:03:05.405Z,98080.86
2018-10-11T18:05:35.743Z,98085.19
2018-10-11T18:08:06.042Z,98085.80
2018-10-11T18:10:36.327Z,98081.97
2018-10-11T18:13:06.678Z,98085.52
2018-10-11T18:15:36.823Z,98087.83
2018-10-11T18:18:07.224Z,98101.44
2018-10-11T18:20:37.527Z,98104.30
2018-10-11T18:23:08.099Z,98110.05
2018-10-11T18:25:38.357Z,98110.72
2018-10-11T18:28:08.521Z,98116.55
2018-10-11T18:30:38.716Z,98114.12
2018-10-11T18:33:09.405Z,98113.81
2018-10-11T18:35:39.677Z,98124.70
2018-10-11T18:38:11.554Z,98125.01
2018-10-11T18:40:41.857Z,98123.97
2018-10-11T18:43:12.345Z,98126.97
2018-10-11T18:45:42.597Z,98131.09
2018-10-11T18:48:14.273Z,98132.78
2018-10-11T18:50:45.876Z,98135.88
2018-10-11T18:53:16.999Z,98132.78
2018-10-11T18:55:47.302Z,98142.13
2018-10-11T18:58:17.829Z,98145.64
2018-10-11T19:00:48.053Z,98144.97
2018-10-11T19:03:18.319Z,98145.89
2018-10-11T19:05:48.846Z,98143.11
2018-10-11T19:08:19.261Z,98144.34
2018-10-11T19:10:49.543Z,98151.38
2018-10-11T19:13:19.709Z,98146.11
2018-10-11T19:15:50.249Z,98146.56
2018-10-11T19:18:21.616Z,98144.84
2018-10-11T19:20:52.737Z,98154.09
2018-10-11T19:23:23.037Z,98154.53
2018-10-11T19:25:53.325Z,98157.33
2018-10-11T19:28:23.626Z,98157.54
2018-10-11T19:30:55.187Z,98156.39
2018-10-11T19:33:25.613Z,98158.67
2018-10-11T19:35:56.925Z,98161.45
2018-10-11T19:38:29.199Z,98162.13
2018-10-11T19:41:02.363Z,98155.50
2018-10-11T19:43:35.489Z,98150.92
2018-10-11T19:46:05.706Z,98152.07
2018-10-11T19:48:35.949Z,98148.14
2018-10-11T19:51:06.570Z,98148.53
2018-10-11T19:53:46.485Z,98156.20
2018-10-11T19:56:16.907Z,98157.97
2018-10-11T19:58:47.206Z,98157.59
2018-10-11T20:01:17.513Z,98163.33
2018-10-11T20:03:47.719Z,98166.72
2018-10-11T20:06:18.368Z,98168.72
2018-10-11T20:08:48.554Z,98172.69
2018-10-11T20:11:18.784Z,98179.34
2018-10-11T20:13:49.173Z,98179.47
2018-10-11T20:16:19.551Z,98183.52
2018-10-11T20:18:50.096Z,98183.92
2018-10-11T20:21:20.316Z,98183.61
2018-10-11T20:23:50.605Z,98190.47
2018-10-11T20:26:21.722Z,98192.06
2018-10-11T20:28:52.018Z,98192.16
2018-10-11T20:31:22.180Z,98194.41
2018-10-11T20:33:52.348Z,98196.50
2018-10-11T20:36:22.520Z,98201.24
2018-10-11T20:38:52.878Z,98200.25
2018-10-11T20:41:23.266Z,98198.87
2018-10-11T20:43:53.537Z,98205.27
2018-10-11T20:46:23.717Z,98208.23
2018-10-11T20:48:53.910Z,98217.58
2018-10-11T20:51:24.243Z,98219.35
2018-10-11T20:53:54.570Z,98215.88
2018-10-11T20:56:24.838Z,98217.51
2018-10-11T20:58:55.104Z,98215.28
2018-10-11T21:01:25.303Z,98216.13
2018-10-11T21:03:55.512Z,98217.58
2018-10-11T21:06:25.834Z,98216.73
2018-10-11T21:08:56.174Z,98229.19
2018-10-11T21:11:26.340Z,98230.10
2018-10-11T21:13:56.709Z,98228.27
2018-10-11T21:16:26.938Z,98223.98
2018-10-11T21:18:57.245Z,98225.42
2018-10-11T21:21:27.424Z,98231.33
2018-10-11T21:23:57.704Z,98235.50
2018-10-11T21:26:27.934Z,98238.26
2018-10-11T21:28:58.195Z,98234.11
2018-10-11T21:31:28.428Z,98235.55
2018-10-11T21:33:58.725Z,98228.68
2018-10-11T21:36:29.171Z,98236.31
2018-10-11T21:38:59.729Z,98240.78
2018-10-11T21:41:29.985Z,98241.39
2018-10-11T21:44:00.297Z,98241.95
2018-10-11T21:46:30.529Z,98244.25
2018-10-11T21:49:00.736Z,98246.22
2018-10-11T21:51:32.767Z,98243.61
2018-10-11T21:54:03.038Z,98239.67
2018-10-11T21:56:33.378Z,98239.67
2018-10-11T21:59:03.661Z,98243.14
2018-10-11T22:01:33.881Z,98248.69
2018-10-11T22:04:04.144Z,98249.86
2018-10-11T22:06:34.345Z,98256.07
2018-10-11T22:09:05.413Z,98251.68
2018-10-11T22:11:35.656Z,98252.22
2018-10-11T22:14:05.911Z,98253.53
2018-10-11T22:16:36.175Z,98253.13
2018-10-11T22:19:06.387Z,98254.28
2018-10-11T22:21:36.615Z,98265.68
2018-10-11T22:24:06.859Z,98266.53
2018-10-11T22:26:37.115Z,98271.99
2018-10-11T22:29:07.493Z,98273.88
2018-10-11T22:31:37.779Z,98274.72
2018-10-11T22:34:07.983Z,98278.39
2018-10-11T22:36:38.305Z,98277.47
2018-10-11T22:39:10.611Z,98276.94
2018-10-11T22:41:41.537Z,98285.64
2018-10-11T22:44:12.717Z,98290.64
2018-10-11T22:46:43.090Z,98296.41
2018-10-11T22:49:13.397Z,98297.50
2018-10-11T22:51:43.577Z,98295.16
2018-10-11T22:54:13.855Z,98299.88
2018-10-11T22:56:44.053Z,98304.65
2018-10-11T22:59:14.235Z,98303.27
2018-10-11T23:01:44.462Z,98295.33
2018-10-11T23:04:14.636Z,98298.54
2018-10-11T23:06:44.841Z,98311.11
2018-10-11T23:09:15.051Z,98315.03
2018-10-11T23:11:45.215Z,98321.45
2018-10-11T23:14:15.374Z,98329.00
2018-10-11T23:16:45.563Z,98327.23
2018-10-11T23:19:15.835Z,98333.92
2018-10-11T23:21:45.973Z,98342.56
2018-10-11T23:24:16.278Z,98339.94
2018-10-11T23:26:46.468Z,98333.00
2018-10-11T23:29:19.918Z,98337.53
2018-10-11T23:31:51.167Z,98333.70
2018-10-11T23:34:22.258Z,98341.39
2018-10-11T23:36:52.536Z,98341.55
2018-10-11T23:39:22.700Z,98342.22
2018-10-11T23:41:52.896Z,98348.00
2018-10-11T23:44:23.340Z,98347.53
2018-10-11T23:46:53.548Z,98351.92
2018-10-11T23:49:23.797Z,98366.07
2018-10-11T23:51:54.108Z,98368.23
2018-10-11T23:54:24.879Z,98364.13
2018-10-11T23:56:55.606Z,98367.14
2018-10-11T23:59:26.270Z,98362.75
